Řízení letového provozu České republiky
OPMET data - Ceska Republika Aktualizace: 22.09.2017 00:37:07  UTC
SIGMET / AIRMET
LKAA SIGMET 3 VALID 220100/220500 LKPW- LKAA PRAHA FIR SEV ICE FCST WI N5041 E01650 - N4942 E01914 - N4825 E01709 - N4838 E01605 - N5041 E01650 FL070/130 STNR NC=
LKAA SIGMET 2 VALID 212100/220100 LKPW- LKAA PRAHA FIR SEV ICE FCST WI N5047 E01701 - N4946 E01921 - N4820 E01711 - N4833 E01551 - N5047 E01638 - N5047 E01701 FL070/130 STNR NC=
Warning / Vystraha
VYSTRAHA C. 4 PRO LKAA PLATNOST 212300/220700 RYCHLOST VETRU VE VYCHODNI POLOVINE FIR MEZI FL250/350 PRESAHUJE 80KT, SMER NW-N=
 
METAR / SPECI
METAR LKCV 220000Z 29007KT CAVOK 12/09 Q1019 NOSIG=
METAR LKKB 220000Z 28005KT CAVOK 12/09 Q1020 =
METAR LKKU NIL
METAR LKKV 220000Z 28002KT CAVOK 10/08 Q1020 RMK REG QNH 1015=
METAR LKLN 220000Z AUTO 22001KT 9999 OVC062 11/10 Q1021=
METAR LKMT 220030Z 36004KT 9000 -RA SCT010 BKN020 12/11 Q1017 NOSIG RMK REG QNH 1015=
METAR LKNA 220000Z 30010KT CAVOK 09/08 Q1018=
METAR LKPD 220000Z 28006KT CAVOK 12/10 Q1019 =
METAR LKPR 220030Z 23005KT 9999 -RA FEW030 11/08 Q1020 NOSIG RMK REG QNH 1015=
METAR LKTB 220030Z 32005KT CAVOK 11/09 Q1018 NOSIG RMK REG QNH 1015=
METAR LKVO NIL
TAF
TAF LKCV 212300Z 2200/2300 30008KT CAVOK      TEMPO 2200/2209 BKN030      PROB30 TEMPO 2204/2206 6000 BR      TEMPO 2209/2212 BKN045=
TAF LKKB 212300Z 2200/2300 30005KT CAVOK      BECMG 2204/2206 SCT035      PROB30 TEMPO 2208/2215 7000 SHRA BKN025      PROB30 TEMPO 2221/2300 5000 BR SCT008=
TAF LKKU NIL
TAF LKKV 212300Z 2200/2306 26005KT 9999 SCT030      TEMPO 2208/2217 31010KT 8000 -RA BKN013      BECMG 2217/2220 VRB02KT CAVOK      BECMG 2222/2300 3000 BR NSC      BECMG 2300/2303 0100 FG VV001=
TAF LKLN NIL
TAF LKMT 212300Z 2200/2306 34010KT 9999 -RA SCT033      TEMPO 2200/2209 02010KT 5000 RA BKN015      BECMG 2209/2211 32005KT 9999 SCT030      BECMG 2216/2218 VRB02KT      BECMG 2221/2300 35015KT 9999 -RA BKN023=
TAF LKNA 212300Z 2200/2300 31012KT CAVOK      BECMG 2206/2208 SCT030      TEMPO 2208/2215 SCT020 BKN030=
TAF LKPD 212300Z 2200/2300 30006KT CAVOK      TEMPO 2202/2208 4000 MIFG BR BKN030      BECMG 2208/2210 BKN027      BECMG 2212/2214 CAVOK=
TAF LKPR 212300Z 2200/2306 28005KT CAVOK      BECMG 2207/2209 30008KT 9999 BKN040      PROB30 TEMPO 2209/2215 33015KT 9999 -SHRA BKN030TCU      BECMG 2216/2218 VRB02KT CAVOK=
TAF LKTB 212300Z 2200/2306 31005KT 9999 SCT040      TEMPO 2200/2218 -SHRA BKN030=
TAF LKVO NIL